Tuesday, June 19, 2018, 4:02 PM EDT
Back to Local

KMTN, Baltimore / Martin

Location: Middle River, MD, United States Lat: 39.333
Local Time: 4:02 PM EDT (20:02 GMT) Lon: -76.417
Time Zone: US/Eastern Elev: 22 ft

Show me the last for .
Show Coded

Time T Td Feel RH Dir Speed Gust Alt SLP Vis Weather Sky Remarks
2018-06-19 15:45 82 73 89 74 - Calm - 29.84 - 10 BKN060 BKN100 None
2018-06-19 14:45 84 75 92 74 10° 5 - 29.84 - 10 SCT040 BKN060 BKN080 None
2018-06-19 13:50 84 73 91 70 340° 9 - 29.84 - 10 BKN080 BKN110 None
2018-06-19 12:45 86 75 95 70 320° 9 - 29.85 - 10 BKN050 OVC070 None
2018-06-19 11:45 86 75 95 70 320° 6 - 29.84 - 10 BKN050 BKN065 BKN100 None
2018-06-19 10:45 90 75 100 62 310° 13 20 29.84 - 10 BKN040CB BKN055 BKN100 None
2018-06-19 09:50 88 75 98 66 310° 10 - 29.84 - 10 SCT150 BKN250 None
2018-06-19 08:45 82 73 89 74 - Calm - 29.84 - 10 BKN150 BKN250 None
2018-06-19 07:45 82 73 89 74 280° 10 - 29.84 - 10 FEW100 BKN150 BKN250 None
2018-06-19 06:45 82 73 89 74 270° 9 - 29.84 - 10 SCT100 OVC250 None
2018-06-19 05:45 82 75 90 78 270° 3 - 29.84 - 6 HZ OVC250 None
2018-06-19 05:30 81 73 86 78 260° 3 - 29.83 - 10 CLR None
2018-06-19 05:15 81 73 86 78 - Calm - 29.83 - 10 CLR None
2018-06-19 04:57 79 73 84 83 - Calm - 29.82 - 10 CLR None
2018-06-19 04:36 79 75 85 88 - Calm - 29.82 - 10 CLR None
2018-06-19 04:15 81 75 87 83 - Calm - 29.83 - 10 CLR None
2018-06-19 03:57 81 75 87 83 260° 5 - 29.83 - 10 CLR None
2018-06-19 03:36 81 75 87 83 - Calm - 29.82 - 10 CLR None
2018-06-19 03:15 82 75 90 78 200° 3 - 29.82 - 10 CLR None
2018-06-19 02:57 82 75 90 78 210° 3 - 29.83 - 10 CLR None
2018-06-19 02:36 82 75 90 78 210° 3 - 29.83 - 10 CLR None
2018-06-19 02:15 82 77 91 83 - Calm - 29.84 - 10 CLR None
2018-06-19 01:57 82 77 91 83 210° 3 - 29.84 - 10 CLR None
2018-06-19 01:36 82 77 91 83 210° 5 - 29.86 - 10 CLR None
2018-06-19 01:15 82 77 91 83 200° 5 - 29.86 - 10 CLR None
2018-06-19 00:57 82 77 91 83 - Calm - 29.87 - 10 CLR None
2018-06-19 00:36 82 77 91 83 210° 3 - 29.87 - 10 CLR None
2018-06-19 00:15 82 77 91 83 - Calm - 29.87 - 10 CLR None
2018-06-18 23:57 82 77 91 83 - Calm - 29.87 - 10 CLR None
2018-06-18 23:36 82 79 93 88 180° 5 - 29.87 - 10 CLR None
2018-06-18 23:15 82 79 93 88 190° 5 - 29.88 - 10 CLR None
2018-06-18 22:57 82 79 93 88 180° 3 - 29.89 - 10 CLR None
2018-06-18 22:36 82 79 93 88 170° 3 - 29.89 - 10 CLR None
2018-06-18 22:15 82 79 93 88 160° 6 - 29.89 - 10 CLR None
2018-06-18 21:50 82 79 93 88 170° 5 - 29.88 - 10 CLR None
2018-06-18 20:50 82 79 93 88 180° 3 - 29.88 - 10 CLR None
2018-06-18 19:50 84 79 96 83 160° 5 - 29.87 - 10 SCT100 None
2018-06-18 18:50 88 75 98 66 170° 6 - 29.89 - 10 BKN100 None
2018-06-18 17:50 88 70 93 55 190° 6 - 29.91 - 10 SCT100 None
2018-06-18 16:50 88 79 102 74 150° 13 - 29.93 - 10 SCT050 None

Support USWX by starting your Amazon purchase here.